sensor_id;sensor_type;location;lat;lon;timestamp;temperature;humidity
20946;DHT22;10632;51.276;7.116;2023-01-29T00:01:57;-1.90;99.90
20946;DHT22;10632;51.276;7.116;2023-01-29T00:04:24;-1.90;99.90
20946;DHT22;10632;51.276;7.116;2023-01-29T00:06:51;-1.90;99.90
20946;DHT22;10632;51.276;7.116;2023-01-29T00:09:18;-1.90;99.90
20946;DHT22;10632;51.276;7.116;2023-01-29T00:11:46;-1.90;99.90
20946;DHT22;10632;51.276;7.116;2023-01-29T00:14:13;-1.90;99.90
20946;DHT22;10632;51.276;7.116;2023-01-29T00:16:40;-1.90;99.90
20946;DHT22;10632;51.276;7.116;2023-01-29T00:19:07;-2.00;99.90
20946;DHT22;10632;51.276;7.116;2023-01-29T00:21:34;-2.00;99.90
20946;DHT22;10632;51.276;7.116;2023-01-29T00:24:01;-1.90;99.90
20946;DHT22;10632;51.276;7.116;2023-01-29T00:26:28;-2.00;99.90
20946;DHT22;10632;51.276;7.116;2023-01-29T00:28:56;-2.00;99.90
20946;DHT22;10632;51.276;7.116;2023-01-29T00:31:28;-2.00;99.90
20946;DHT22;10632;51.276;7.116;2023-01-29T00:33:55;-2.00;99.90
20946;DHT22;10632;51.276;7.116;2023-01-29T00:36:22;-2.00;99.90
20946;DHT22;10632;51.276;7.116;2023-01-29T00:38:54;-2.00;99.90
20946;DHT22;10632;51.276;7.116;2023-01-29T00:41:25;-2.00;99.90
20946;DHT22;10632;51.276;7.116;2023-01-29T00:44:11;-2.00;99.90
20946;DHT22;10632;51.276;7.116;2023-01-29T00:46:55;-2.10;99.90
20946;DHT22;10632;51.276;7.116;2023-01-29T00:49:22;-2.10;99.90
20946;DHT22;10632;51.276;7.116;2023-01-29T00:51:50;-2.10;99.90
20946;DHT22;10632;51.276;7.116;2023-01-29T00:54:31;-2.10;99.90
20946;DHT22;10632;51.276;7.116;2023-01-29T00:56:58;-2.10;99.90
20946;DHT22;10632;51.276;7.116;2023-01-29T00:59:26;-2.10;99.90
20946;DHT22;10632;51.276;7.116;2023-01-29T01:01:53;-2.10;99.90
20946;DHT22;10632;51.276;7.116;2023-01-29T01:04:38;-2.10;99.90
20946;DHT22;10632;51.276;7.116;2023-01-29T01:07:05;-2.10;99.90
20946;DHT22;10632;51.276;7.116;2023-01-29T01:09:34;-2.10;99.90
20946;DHT22;10632;51.276;7.116;2023-01-29T01:12:18;-2.10;99.90
20946;DHT22;10632;51.276;7.116;2023-01-29T01:14:47;-2.10;99.90
20946;DHT22;10632;51.276;7.116;2023-01-29T01:17:13;-2.10;99.90
20946;DHT22;10632;51.276;7.116;2023-01-29T01:19:41;-2.10;99.90
20946;DHT22;10632;51.276;7.116;2023-01-29T01:22:08;-2.10;99.90
20946;DHT22;10632;51.276;7.116;2023-01-29T01:24:34;-2.10;99.90
20946;DHT22;10632;51.276;7.116;2023-01-29T01:27:02;-2.10;99.90
20946;DHT22;10632;51.276;7.116;2023-01-29T01:29:29;-2.10;99.90
20946;DHT22;10632;51.276;7.116;2023-01-29T01:31:58;-2.10;99.90
20946;DHT22;10632;51.276;7.116;2023-01-29T01:34:25;-2.20;99.90
20946;DHT22;10632;51.276;7.116;2023-01-29T01:36:52;-2.20;99.90
20946;DHT22;10632;51.276;7.116;2023-01-29T01:39:20;-2.20;99.90
20946;DHT22;10632;51.276;7.116;2023-01-29T01:41:47;-2.20;99.90
20946;DHT22;10632;51.276;7.116;2023-01-29T01:44:53;-2.20;99.90
20946;DHT22;10632;51.276;7.116;2023-01-29T01:47:28;-2.20;99.90
20946;DHT22;10632;51.276;7.116;2023-01-29T01:50:00;-2.20;99.90
20946;DHT22;10632;51.276;7.116;2023-01-29T01:52:29;-2.30;99.90
20946;DHT22;10632;51.276;7.116;2023-01-29T01:54:58;-2.20;99.90
20946;DHT22;10632;51.276;7.116;2023-01-29T01:57:26;-2.30;99.90
20946;DHT22;10632;51.276;7.116;2023-01-29T01:59:58;-2.30;99.90
20946;DHT22;10632;51.276;7.116;2023-01-29T02:02:38;-2.30;99.90
20946;DHT22;10632;51.276;7.116;2023-01-29T02:05:23;-2.30;99.90
20946;DHT22;10632;51.276;7.116;2023-01-29T02:08:08;-2.30;99.90
20946;DHT22;10632;51.276;7.116;2023-01-29T02:10:53;-2.30;99.90
20946;DHT22;10632;51.276;7.116;2023-01-29T02:13:20;-2.30;99.90
20946;DHT22;10632;51.276;7.116;2023-01-29T02:15:48;-2.30;99.90
20946;DHT22;10632;51.276;7.116;2023-01-29T02:18:18;-2.30;99.90
20946;DHT22;10632;51.276;7.116;2023-01-29T02:20:51;-2.30;99.90
20946;DHT22;10632;51.276;7.116;2023-01-29T02:29:15;-2.40;99.90
20946;DHT22;10632;51.276;7.116;2023-01-29T02:31:58;-2.40;99.90
20946;DHT22;10632;51.276;7.116;2023-01-29T02:34:32;-2.30;99.90
20946;DHT22;10632;51.276;7.116;2023-01-29T02:37:22;-2.40;99.90
20946;DHT22;10632;51.276;7.116;2023-01-29T02:40:00;-2.40;99.90
20946;DHT22;10632;51.276;7.116;2023-01-29T02:42:34;-2.30;99.90
20946;DHT22;10632;51.276;7.116;2023-01-29T02:45:09;-2.40;99.90
20946;DHT22;10632;51.276;7.116;2023-01-29T02:47:43;-2.40;99.90
20946;DHT22;10632;51.276;7.116;2023-01-29T02:50:14;-2.40;99.90
20946;DHT22;10632;51.276;7.116;2023-01-29T02:52:46;-2.40;99.90
20946;DHT22;10632;51.276;7.116;2023-01-29T02:55:23;-2.50;99.90
20946;DHT22;10632;51.276;7.116;2023-01-29T02:57:55;-2.50;99.90
20946;DHT22;10632;51.276;7.116;2023-01-29T03:00:37;-2.50;99.90
20946;DHT22;10632;51.276;7.116;2023-01-29T03:03:07;-2.50;99.90
20946;DHT22;10632;51.276;7.116;2023-01-29T03:05:39;-2.60;99.90
20946;DHT22;10632;51.276;7.116;2023-01-29T03:08:13;-2.50;99.90
20946;DHT22;10632;51.276;7.116;2023-01-29T03:10:45;-2.60;99.90
20946;DHT22;10632;51.276;7.116;2023-01-29T03:13:29;-2.60;99.90
20946;DHT22;10632;51.276;7.116;2023-01-29T03:16:03;-2.60;99.90
20946;DHT22;10632;51.276;7.116;2023-01-29T03:18:35;-2.60;99.90
20946;DHT22;10632;51.276;7.116;2023-01-29T03:21:10;-2.60;99.90
20946;DHT22;10632;51.276;7.116;2023-01-29T03:23:54;-2.60;99.90
20946;DHT22;10632;51.276;7.116;2023-01-29T03:26:42;-2.60;99.90
20946;DHT22;10632;51.276;7.116;2023-01-29T03:29:31;-2.60;99.90
20946;DHT22;10632;51.276;7.116;2023-01-29T03:32:20;-2.60;99.90
20946;DHT22;10632;51.276;7.116;2023-01-29T03:34:51;-2.60;99.90
20946;DHT22;10632;51.276;7.116;2023-01-29T03:37:26;-2.60;99.90
20946;DHT22;10632;51.276;7.116;2023-01-29T03:39:55;-2.60;99.90
20946;DHT22;10632;51.276;7.116;2023-01-29T03:42:26;-2.60;99.90
20946;DHT22;10632;51.276;7.116;2023-01-29T03:44:59;-2.60;99.90
20946;DHT22;10632;51.276;7.116;2023-01-29T03:47:41;-2.70;99.90
20946;DHT22;10632;51.276;7.116;2023-01-29T03:50:14;-2.70;99.90
20946;DHT22;10632;51.276;7.116;2023-01-29T03:52:48;-2.70;99.90
20946;DHT22;10632;51.276;7.116;2023-01-29T03:55:23;-2.70;99.90
20946;DHT22;10632;51.276;7.116;2023-01-29T03:57:56;-2.70;99.90
20946;DHT22;10632;51.276;7.116;2023-01-29T04:00:32;-2.60;99.90
20946;DHT22;10632;51.276;7.116;2023-01-29T04:03:06;-2.60;99.90
20946;DHT22;10632;51.276;7.116;2023-01-29T04:05:41;-2.70;99.90
20946;DHT22;10632;51.276;7.116;2023-01-29T04:08:13;-2.70;99.90
20946;DHT22;10632;51.276;7.116;2023-01-29T04:10:42;-2.70;99.90
20946;DHT22;10632;51.276;7.116;2023-01-29T04:13:12;-2.70;99.90
20946;DHT22;10632;51.276;7.116;2023-01-29T04:15:45;-2.70;99.90
20946;DHT22;10632;51.276;7.116;2023-01-29T04:18:14;-2.70;99.90
20946;DHT22;10632;51.276;7.116;2023-01-29T04:20:45;-2.70;99.90
20946;DHT22;10632;51.276;7.116;2023-01-29T04:23:20;-2.70;99.90
20946;DHT22;10632;51.276;7.116;2023-01-29T04:25:52;-2.70;99.90
20946;DHT22;10632;51.276;7.116;2023-01-29T04:28:24;-2.70;99.90
20946;DHT22;10632;51.276;7.116;2023-01-29T04:30:55;-2.70;99.90
20946;DHT22;10632;51.276;7.116;2023-01-29T04:33:31;-2.70;99.90
20946;DHT22;10632;51.276;7.116;2023-01-29T04:36:16;-2.70;99.90
20946;DHT22;10632;51.276;7.116;2023-01-29T04:38:55;-2.70;99.90
20946;DHT22;10632;51.276;7.116;2023-01-29T04:41:28;-2.70;99.90
20946;DHT22;10632;51.276;7.116;2023-01-29T04:44:04;-2.70;99.90
20946;DHT22;10632;51.276;7.116;2023-01-29T04:46:41;-2.70;99.90
20946;DHT22;10632;51.276;7.116;2023-01-29T04:49:21;-2.70;99.90
20946;DHT22;10632;51.276;7.116;2023-01-29T04:51:57;-2.70;99.90
20946;DHT22;10632;51.276;7.116;2023-01-29T04:54:34;-2.70;99.90
20946;DHT22;10632;51.276;7.116;2023-01-29T04:57:10;-2.70;99.90
20946;DHT22;10632;51.276;7.116;2023-01-29T04:59:41;-2.80;99.90
20946;DHT22;10632;51.276;7.116;2023-01-29T05:02:09;-2.80;99.90
20946;DHT22;10632;51.276;7.116;2023-01-29T05:04:40;-2.70;99.90
20946;DHT22;10632;51.276;7.116;2023-01-29T05:07:11;-2.80;99.90
20946;DHT22;10632;51.276;7.116;2023-01-29T05:09:41;-2.80;99.90
20946;DHT22;10632;51.276;7.116;2023-01-29T05:12:10;-2.80;99.90
20946;DHT22;10632;51.276;7.116;2023-01-29T05:14:40;-2.80;99.90
20946;DHT22;10632;51.276;7.116;2023-01-29T05:17:12;-2.80;99.90
20946;DHT22;10632;51.276;7.116;2023-01-29T05:19:41;-2.90;99.90
20946;DHT22;10632;51.276;7.116;2023-01-29T05:22:10;-2.90;99.90
20946;DHT22;10632;51.276;7.116;2023-01-29T05:24:37;-2.90;99.90
20946;DHT22;10632;51.276;7.116;2023-01-29T05:27:04;-2.90;99.90
20946;DHT22;10632;51.276;7.116;2023-01-29T05:29:49;-2.90;99.90
20946;DHT22;10632;51.276;7.116;2023-01-29T05:32:16;-2.90;99.90
20946;DHT22;10632;51.276;7.116;2023-01-29T05:34:44;-2.90;99.90
20946;DHT22;10632;51.276;7.116;2023-01-29T05:37:11;-3.00;99.90
20946;DHT22;10632;51.276;7.116;2023-01-29T05:39:38;-3.00;99.90
20946;DHT22;10632;51.276;7.116;2023-01-29T05:42:05;-3.00;99.90
20946;DHT22;10632;51.276;7.116;2023-01-29T05:44:32;-3.00;99.90
20946;DHT22;10632;51.276;7.116;2023-01-29T05:46:59;-3.10;99.90
20946;DHT22;10632;51.276;7.116;2023-01-29T05:49:27;-3.10;99.90
20946;DHT22;10632;51.276;7.116;2023-01-29T05:51:59;-3.10;99.90
20946;DHT22;10632;51.276;7.116;2023-01-29T05:54:28;-3.10;99.90
20946;DHT22;10632;51.276;7.116;2023-01-29T05:56:54;-3.10;99.90
20946;DHT22;10632;51.276;7.116;2023-01-29T05:59:21;-3.10;99.90
20946;DHT22;10632;51.276;7.116;2023-01-29T06:01:48;-3.10;99.90
20946;DHT22;10632;51.276;7.116;2023-01-29T06:04:17;-3.10;99.90
20946;DHT22;10632;51.276;7.116;2023-01-29T06:06:44;-3.20;99.90
20946;DHT22;10632;51.276;7.116;2023-01-29T06:09:12;-3.20;99.90
20946;DHT22;10632;51.276;7.116;2023-01-29T06:11:39;-3.20;99.90
20946;DHT22;10632;51.276;7.116;2023-01-29T06:14:06;-3.20;99.90
20946;DHT22;10632;51.276;7.116;2023-01-29T06:16:33;-3.20;99.90
20946;DHT22;10632;51.276;7.116;2023-01-29T06:19:00;-3.20;99.90
20946;DHT22;10632;51.276;7.116;2023-01-29T06:21:27;-3.20;99.90
20946;DHT22;10632;51.276;7.116;2023-01-29T06:23:53;-3.20;99.90
20946;DHT22;10632;51.276;7.116;2023-01-29T06:26:22;-3.20;99.90
20946;DHT22;10632;51.276;7.116;2023-01-29T06:28:49;-3.20;99.90
20946;DHT22;10632;51.276;7.116;2023-01-29T06:31:16;-3.20;99.90
20946;DHT22;10632;51.276;7.116;2023-01-29T06:33:43;-3.20;99.90
20946;DHT22;10632;51.276;7.116;2023-01-29T06:36:10;-3.20;99.90
20946;DHT22;10632;51.276;7.116;2023-01-29T06:38:39;-3.10;99.90
20946;DHT22;10632;51.276;7.116;2023-01-29T06:41:10;-3.10;99.90
20946;DHT22;10632;51.276;7.116;2023-01-29T06:43:38;-3.10;99.90
20946;DHT22;10632;51.276;7.116;2023-01-29T06:46:07;-3.10;99.90
20946;DHT22;10632;51.276;7.116;2023-01-29T06:48:34;-3.10;99.90
20946;DHT22;10632;51.276;7.116;2023-01-29T06:51:02;-3.10;99.90
20946;DHT22;10632;51.276;7.116;2023-01-29T06:53:30;-3.00;99.90
20946;DHT22;10632;51.276;7.116;2023-01-29T06:55:57;-3.00;99.90
20946;DHT22;10632;51.276;7.116;2023-01-29T06:58:24;-3.00;99.90
20946;DHT22;10632;51.276;7.116;2023-01-29T07:00:52;-3.00;99.90
20946;DHT22;10632;51.276;7.116;2023-01-29T07:03:21;-3.00;99.90
20946;DHT22;10632;51.276;7.116;2023-01-29T07:05:51;-3.00;99.90
20946;DHT22;10632;51.276;7.116;2023-01-29T07:08:18;-3.00;99.90
20946;DHT22;10632;51.276;7.116;2023-01-29T07:10:47;-3.00;99.90
20946;DHT22;10632;51.276;7.116;2023-01-29T07:13:14;-3.00;99.90
20946;DHT22;10632;51.276;7.116;2023-01-29T07:15:41;-3.00;99.90
20946;DHT22;10632;51.276;7.116;2023-01-29T07:18:10;-3.00;99.90
20946;DHT22;10632;51.276;7.116;2023-01-29T07:20:38;-3.10;99.90
20946;DHT22;10632;51.276;7.116;2023-01-29T07:23:06;-3.00;99.90
20946;DHT22;10632;51.276;7.116;2023-01-29T07:25:33;-3.00;99.90
20946;DHT22;10632;51.276;7.116;2023-01-29T07:28:00;-3.00;99.90
20946;DHT22;10632;51.276;7.116;2023-01-29T07:30:27;-2.90;99.90
20946;DHT22;10632;51.276;7.116;2023-01-29T07:32:56;-3.00;99.90
20946;DHT22;10632;51.276;7.116;2023-01-29T07:35:27;-2.90;99.90
20946;DHT22;10632;51.276;7.116;2023-01-29T07:37:54;-2.90;99.90
20946;DHT22;10632;51.276;7.116;2023-01-29T07:40:21;-2.90;99.90
20946;DHT22;10632;51.276;7.116;2023-01-29T07:42:48;-2.90;99.90
20946;DHT22;10632;51.276;7.116;2023-01-29T07:45:15;-2.90;99.90
20946;DHT22;10632;51.276;7.116;2023-01-29T07:47:42;-2.90;99.90
20946;DHT22;10632;51.276;7.116;2023-01-29T07:50:12;-2.90;99.90
20946;DHT22;10632;51.276;7.116;2023-01-29T07:52:40;-2.90;99.90
20946;DHT22;10632;51.276;7.116;2023-01-29T07:55:08;-2.90;99.90
20946;DHT22;10632;51.276;7.116;2023-01-29T07:57:35;-2.80;99.90
20946;DHT22;10632;51.276;7.116;2023-01-29T08:00:04;-2.80;99.90
20946;DHT22;10632;51.276;7.116;2023-01-29T08:02:31;-2.80;99.90
20946;DHT22;10632;51.276;7.116;2023-01-29T08:04:58;-2.80;99.90
20946;DHT22;10632;51.276;7.116;2023-01-29T08:07:25;-2.80;99.90
20946;DHT22;10632;51.276;7.116;2023-01-29T08:09:53;-2.80;99.90
20946;DHT22;10632;51.276;7.116;2023-01-29T08:12:20;-2.80;99.90
20946;DHT22;10632;51.276;7.116;2023-01-29T08:14:50;-2.80;99.90
20946;DHT22;10632;51.276;7.116;2023-01-29T08:17:17;-2.80;99.90
20946;DHT22;10632;51.276;7.116;2023-01-29T08:19:43;-2.80;99.90
20946;DHT22;10632;51.276;7.116;2023-01-29T08:22:10;-2.80;99.90
20946;DHT22;10632;51.276;7.116;2023-01-29T08:24:41;-2.80;99.90
20946;DHT22;10632;51.276;7.116;2023-01-29T08:27:09;-2.70;99.90
20946;DHT22;10632;51.276;7.116;2023-01-29T08:29:36;-2.70;99.90
20946;DHT22;10632;51.276;7.116;2023-01-29T08:32:03;-2.70;99.90
20946;DHT22;10632;51.276;7.116;2023-01-29T08:34:30;-2.80;99.90
20946;DHT22;10632;51.276;7.116;2023-01-29T08:36:56;-2.80;99.90
20946;DHT22;10632;51.276;7.116;2023-01-29T08:39:23;-2.70;99.90
20946;DHT22;10632;51.276;7.116;2023-01-29T08:41:50;-2.70;99.90
20946;DHT22;10632;51.276;7.116;2023-01-29T08:44:18;-2.70;99.90
20946;DHT22;10632;51.276;7.116;2023-01-29T08:46:45;-2.70;99.90
20946;DHT22;10632;51.276;7.116;2023-01-29T08:49:12;-2.70;99.90
20946;DHT22;10632;51.276;7.116;2023-01-29T08:51:39;-2.70;99.90
20946;DHT22;10632;51.276;7.116;2023-01-29T08:54:06;-2.70;99.90
20946;DHT22;10632;51.276;7.116;2023-01-29T08:56:33;-2.70;99.90
20946;DHT22;10632;51.276;7.116;2023-01-29T08:59:00;-2.60;99.90
20946;DHT22;10632;51.276;7.116;2023-01-29T09:01:28;-2.60;99.90
20946;DHT22;10632;51.276;7.116;2023-01-29T09:03:55;-2.60;99.90
20946;DHT22;10632;51.276;7.116;2023-01-29T09:06:22;-2.60;99.90
20946;DHT22;10632;51.276;7.116;2023-01-29T09:08:48;-2.60;99.90
20946;DHT22;10632;51.276;7.116;2023-01-29T09:11:15;-2.60;99.90
20946;DHT22;10632;51.276;7.116;2023-01-29T09:13:42;-2.60;99.90
20946;DHT22;10632;51.276;7.116;2023-01-29T09:16:09;-2.70;99.90
20946;DHT22;10632;51.276;7.116;2023-01-29T09:18:37;-2.60;99.90
20946;DHT22;10632;51.276;7.116;2023-01-29T09:21:04;-2.70;99.90
20946;DHT22;10632;51.276;7.116;2023-01-29T09:23:32;-2.70;99.90
20946;DHT22;10632;51.276;7.116;2023-01-29T09:25:59;-2.70;99.90
20946;DHT22;10632;51.276;7.116;2023-01-29T09:28:26;-2.70;99.90
20946;DHT22;10632;51.276;7.116;2023-01-29T09:30:53;-2.70;99.90
20946;DHT22;10632;51.276;7.116;2023-01-29T09:33:19;-2.60;99.90
20946;DHT22;10632;51.276;7.116;2023-01-29T09:35:48;-2.60;99.90
20946;DHT22;10632;51.276;7.116;2023-01-29T09:38:15;-2.60;99.90
20946;DHT22;10632;51.276;7.116;2023-01-29T09:40:50;-2.60;99.90
20946;DHT22;10632;51.276;7.116;2023-01-29T09:43:22;-2.60;99.90
20946;DHT22;10632;51.276;7.116;2023-01-29T09:45:53;-2.60;99.90
20946;DHT22;10632;51.276;7.116;2023-01-29T09:48:25;-2.60;99.90
20946;DHT22;10632;51.276;7.116;2023-01-29T09:50:55;-2.60;99.90
20946;DHT22;10632;51.276;7.116;2023-01-29T09:53:28;-2.50;99.90
20946;DHT22;10632;51.276;7.116;2023-01-29T09:56:01;-2.60;99.90
20946;DHT22;10632;51.276;7.116;2023-01-29T09:58:32;-2.50;99.90
20946;DHT22;10632;51.276;7.116;2023-01-29T10:01:07;-2.50;99.90
20946;DHT22;10632;51.276;7.116;2023-01-29T10:03:48;-2.40;99.90
20946;DHT22;10632;51.276;7.116;2023-01-29T10:06:34;-2.40;99.90
20946;DHT22;10632;51.276;7.116;2023-01-29T10:09:27;-2.40;99.90
20946;DHT22;10632;51.276;7.116;2023-01-29T10:12:04;-2.30;99.90
20946;DHT22;10632;51.276;7.116;2023-01-29T10:14:40;-2.30;99.90
20946;DHT22;10632;51.276;7.116;2023-01-29T10:17:19;-2.30;99.90
20946;DHT22;10632;51.276;7.116;2023-01-29T10:20:00;-2.20;99.90
20946;DHT22;10632;51.276;7.116;2023-01-29T10:22:53;-2.20;99.90
20946;DHT22;10632;51.276;7.116;2023-01-29T10:25:22;-2.10;99.90
20946;DHT22;10632;51.276;7.116;2023-01-29T10:27:52;-2.20;99.90
20946;DHT22;10632;51.276;7.116;2023-01-29T10:30:30;-2.10;99.90
20946;DHT22;10632;51.276;7.116;2023-01-29T10:33:01;-2.10;99.90
20946;DHT22;10632;51.276;7.116;2023-01-29T10:35:31;-2.00;99.90
20946;DHT22;10632;51.276;7.116;2023-01-29T10:38:18;-2.00;99.90
20946;DHT22;10632;51.276;7.116;2023-01-29T10:40:52;-2.00;99.90
20946;DHT22;10632;51.276;7.116;2023-01-29T10:43:29;-1.90;99.90
20946;DHT22;10632;51.276;7.116;2023-01-29T10:46:07;-1.90;99.90
20946;DHT22;10632;51.276;7.116;2023-01-29T10:48:45;-1.80;99.90
20946;DHT22;10632;51.276;7.116;2023-01-29T10:51:35;-1.70;99.90
20946;DHT22;10632;51.276;7.116;2023-01-29T10:54:20;-1.70;99.90
20946;DHT22;10632;51.276;7.116;2023-01-29T10:57:00;-1.60;99.90
20946;DHT22;10632;51.276;7.116;2023-01-29T10:59:40;-1.60;99.90
20946;DHT22;10632;51.276;7.116;2023-01-29T11:02:15;-1.50;99.90
20946;DHT22;10632;51.276;7.116;2023-01-29T11:04:44;-1.40;99.90
20946;DHT22;10632;51.276;7.116;2023-01-29T11:07:12;-1.30;99.90
20946;DHT22;10632;51.276;7.116;2023-01-29T11:09:44;-1.20;99.90
20946;DHT22;10632;51.276;7.116;2023-01-29T11:12:13;-1.10;99.90
20946;DHT22;10632;51.276;7.116;2023-01-29T11:14:46;-1.10;99.90
20946;DHT22;10632;51.276;7.116;2023-01-29T11:17:16;-1.00;99.90
20946;DHT22;10632;51.276;7.116;2023-01-29T11:19:45;-1.00;99.90
20946;DHT22;10632;51.276;7.116;2023-01-29T11:22:14;-1.00;99.90
20946;DHT22;10632;51.276;7.116;2023-01-29T11:24:42;-1.10;99.90
20946;DHT22;10632;51.276;7.116;2023-01-29T11:27:14;-1.00;99.90
20946;DHT22;10632;51.276;7.116;2023-01-29T11:29:43;-1.00;99.90
20946;DHT22;10632;51.276;7.116;2023-01-29T11:32:12;-1.00;99.90
20946;DHT22;10632;51.276;7.116;2023-01-29T11:35:00;-0.90;99.90
20946;DHT22;10632;51.276;7.116;2023-01-29T11:37:35;-0.90;99.90
20946;DHT22;10632;51.276;7.116;2023-01-29T11:43:11;-0.80;99.90
20946;DHT22;10632;51.276;7.116;2023-01-29T11:45:39;-0.80;99.90
20946;DHT22;10632;51.276;7.116;2023-01-29T11:48:14;-0.80;99.90
20946;DHT22;10632;51.276;7.116;2023-01-29T11:50:42;-0.80;99.90
20946;DHT22;10632;51.276;7.116;2023-01-29T11:53:22;-0.80;99.90
20946;DHT22;10632;51.276;7.116;2023-01-29T11:55:50;-0.80;99.90
20946;DHT22;10632;51.276;7.116;2023-01-29T11:58:22;-0.80;99.90
20946;DHT22;10632;51.276;7.116;2023-01-29T12:00:53;-0.80;99.90
20946;DHT22;10632;51.276;7.116;2023-01-29T12:03:23;-0.80;99.90
20946;DHT22;10632;51.276;7.116;2023-01-29T12:05:56;-0.80;99.90
20946;DHT22;10632;51.276;7.116;2023-01-29T12:08:24;-0.70;99.90
20946;DHT22;10632;51.276;7.116;2023-01-29T12:11:07;-0.70;99.90
20946;DHT22;10632;51.276;7.116;2023-01-29T12:13:35;-0.70;99.90
20946;DHT22;10632;51.276;7.116;2023-01-29T12:16:14;-0.70;99.90
20946;DHT22;10632;51.276;7.116;2023-01-29T12:18:48;-0.60;99.90
20946;DHT22;10632;51.276;7.116;2023-01-29T12:21:19;-0.60;99.90
20946;DHT22;10632;51.276;7.116;2023-01-29T12:23:55;-0.60;99.90
20946;DHT22;10632;51.276;7.116;2023-01-29T12:26:26;-0.60;99.90
20946;DHT22;10632;51.276;7.116;2023-01-29T12:31:53;-0.60;99.90
20946;DHT22;10632;51.276;7.116;2023-01-29T12:34:26;-0.50;99.90
20946;DHT22;10632;51.276;7.116;2023-01-29T12:37:02;-0.50;99.90
20946;DHT22;10632;51.276;7.116;2023-01-29T12:39:31;-0.50;99.90
20946;DHT22;10632;51.276;7.116;2023-01-29T12:42:00;-0.50;99.90
20946;DHT22;10632;51.276;7.116;2023-01-29T12:44:34;-0.50;99.90
20946;DHT22;10632;51.276;7.116;2023-01-29T12:47:11;-0.50;99.90
20946;DHT22;10632;51.276;7.116;2023-01-29T12:49:40;-0.50;99.90
20946;DHT22;10632;51.276;7.116;2023-01-29T12:52:10;-0.40;99.90
20946;DHT22;10632;51.276;7.116;2023-01-29T12:54:44;-0.40;99.90
20946;DHT22;10632;51.276;7.116;2023-01-29T12:57:19;-0.40;99.90
20946;DHT22;10632;51.276;7.116;2023-01-29T12:59:52;-0.40;99.90
20946;DHT22;10632;51.276;7.116;2023-01-29T13:02:32;-0.40;99.90
20946;DHT22;10632;51.276;7.116;2023-01-29T13:05:03;-0.40;99.90
20946;DHT22;10632;51.276;7.116;2023-01-29T13:07:32;-0.40;99.90
20946;DHT22;10632;51.276;7.116;2023-01-29T13:10:06;-0.40;99.90
20946;DHT22;10632;51.276;7.116;2023-01-29T13:12:34;-0.30;99.90
20946;DHT22;10632;51.276;7.116;2023-01-29T13:15:09;-0.30;99.90
20946;DHT22;10632;51.276;7.116;2023-01-29T13:17:43;-0.30;99.90
20946;DHT22;10632;51.276;7.116;2023-01-29T13:20:16;-0.30;99.90
20946;DHT22;10632;51.276;7.116;2023-01-29T13:22:45;-0.30;99.90
20946;DHT22;10632;51.276;7.116;2023-01-29T13:25:16;-0.30;99.90
20946;DHT22;10632;51.276;7.116;2023-01-29T13:27:44;-0.30;99.90
20946;DHT22;10632;51.276;7.116;2023-01-29T13:30:25;-0.20;99.90
20946;DHT22;10632;51.276;7.116;2023-01-29T13:32:58;-0.20;99.90
20946;DHT22;10632;51.276;7.116;2023-01-29T13:35:38;-0.20;99.90
20946;DHT22;10632;51.276;7.116;2023-01-29T13:38:05;-0.20;99.90
20946;DHT22;10632;51.276;7.116;2023-01-29T13:40:48;-0.30;99.90
20946;DHT22;10632;51.276;7.116;2023-01-29T13:43:19;-0.20;99.90
20946;DHT22;10632;51.276;7.116;2023-01-29T13:45:50;-0.20;99.90
20946;DHT22;10632;51.276;7.116;2023-01-29T13:48:23;-0.10;99.90
20946;DHT22;10632;51.276;7.116;2023-01-29T13:50:52;-0.10;99.90
20946;DHT22;10632;51.276;7.116;2023-01-29T13:53:23;0.00;99.90
20946;DHT22;10632;51.276;7.116;2023-01-29T13:55:51;0.00;99.90
20946;DHT22;10632;51.276;7.116;2023-01-29T13:58:53;0.00;99.90
20946;DHT22;10632;51.276;7.116;2023-01-29T14:04:25;0.00;99.90
20946;DHT22;10632;51.276;7.116;2023-01-29T14:06:55;0.00;99.90
20946;DHT22;10632;51.276;7.116;2023-01-29T14:12:34;0.00;99.90
20946;DHT22;10632;51.276;7.116;2023-01-29T14:15:12;0.00;99.90
20946;DHT22;10632;51.276;7.116;2023-01-29T14:17:57;0.00;99.90
20946;DHT22;10632;51.276;7.116;2023-01-29T14:20:31;0.00;99.90
20946;DHT22;10632;51.276;7.116;2023-01-29T14:22:59;0.00;99.90
20946;DHT22;10632;51.276;7.116;2023-01-29T14:25:33;0.00;99.90
20946;DHT22;10632;51.276;7.116;2023-01-29T14:28:02;0.00;99.90
20946;DHT22;10632;51.276;7.116;2023-01-29T14:30:31;0.00;99.90
20946;DHT22;10632;51.276;7.116;2023-01-29T14:33:01;0.00;99.90
20946;DHT22;10632;51.276;7.116;2023-01-29T14:35:32;0.10;99.90
20946;DHT22;10632;51.276;7.116;2023-01-29T14:38:01;0.10;99.90
20946;DHT22;10632;51.276;7.116;2023-01-29T14:40:31;0.10;99.90
20946;DHT22;10632;51.276;7.116;2023-01-29T14:43:02;0.10;99.90
20946;DHT22;10632;51.276;7.116;2023-01-29T14:45:33;0.10;99.90
20946;DHT22;10632;51.276;7.116;2023-01-29T14:51:07;0.10;99.90
20946;DHT22;10632;51.276;7.116;2023-01-29T14:53:52;0.10;99.90
20946;DHT22;10632;51.276;7.116;2023-01-29T14:56:25;0.10;99.90
20946;DHT22;10632;51.276;7.116;2023-01-29T14:58:56;0.10;99.90
20946;DHT22;10632;51.276;7.116;2023-01-29T15:01:31;0.10;99.90
20946;DHT22;10632;51.276;7.116;2023-01-29T15:04:02;0.10;99.90
20946;DHT22;10632;51.276;7.116;2023-01-29T15:06:36;0.10;99.90
20946;DHT22;10632;51.276;7.116;2023-01-29T15:09:11;0.10;99.90
20946;DHT22;10632;51.276;7.116;2023-01-29T15:11:46;0.10;99.90
20946;DHT22;10632;51.276;7.116;2023-01-29T15:14:23;0.10;99.90
20946;DHT22;10632;51.276;7.116;2023-01-29T15:17:01;0.10;99.90
20946;DHT22;10632;51.276;7.116;2023-01-29T15:19:34;0.10;99.90
20946;DHT22;10632;51.276;7.116;2023-01-29T15:22:10;0.10;99.90
20946;DHT22;10632;51.276;7.116;2023-01-29T15:24:39;0.10;99.90
20946;DHT22;10632;51.276;7.116;2023-01-29T15:27:10;0.20;99.90
20946;DHT22;10632;51.276;7.116;2023-01-29T15:29:38;0.20;99.90
20946;DHT22;10632;51.276;7.116;2023-01-29T15:32:06;0.20;99.90
20946;DHT22;10632;51.276;7.116;2023-01-29T15:34:36;0.20;99.90
20946;DHT22;10632;51.276;7.116;2023-01-29T15:37:23;0.20;99.90
20946;DHT22;10632;51.276;7.116;2023-01-29T15:39:50;0.20;99.90
20946;DHT22;10632;51.276;7.116;2023-01-29T15:42:17;0.20;99.90
20946;DHT22;10632;51.276;7.116;2023-01-29T15:44:50;0.20;99.90
20946;DHT22;10632;51.276;7.116;2023-01-29T15:47:21;0.20;99.90
20946;DHT22;10632;51.276;7.116;2023-01-29T15:49:49;0.20;99.90
20946;DHT22;10632;51.276;7.116;2023-01-29T15:52:20;0.20;99.90
20946;DHT22;10632;51.276;7.116;2023-01-29T15:54:48;0.20;99.90
20946;DHT22;10632;51.276;7.116;2023-01-29T15:57:22;0.20;99.90
20946;DHT22;10632;51.276;7.116;2023-01-29T15:59:51;0.30;99.90
20946;DHT22;10632;51.276;7.116;2023-01-29T16:02:38;0.30;99.90
20946;DHT22;10632;51.276;7.116;2023-01-29T16:05:10;0.30;99.90
20946;DHT22;10632;51.276;7.116;2023-01-29T16:07:40;0.30;99.90
20946;DHT22;10632;51.276;7.116;2023-01-29T16:10:14;0.30;99.90
20946;DHT22;10632;51.276;7.116;2023-01-29T16:12:43;0.30;99.90
20946;DHT22;10632;51.276;7.116;2023-01-29T16:15:20;0.40;99.90
20946;DHT22;10632;51.276;7.116;2023-01-29T16:17:47;0.40;99.90
20946;DHT22;10632;51.276;7.116;2023-01-29T16:20:28;0.30;99.90
20946;DHT22;10632;51.276;7.116;2023-01-29T16:22:58;0.40;99.90